Time;durP1;ratioP1;P1;durP2;ratioP2;P2;SDS_P1;SDS_P2;PMS_P1;PMS_P2;Temp;Humidity;BMP_temperature;BMP_pressure;BME280_temperature;BME280_humidity;BME280_pressure;Samples;Min_cycle;Max_cycle;Signal;HPM_P1;HPM_P2
2023/04/23 00:01:05;;;;;;;;;;;15.70;80.50;;;;;;5043306;28;19937;-73
2023/04/23 00:03:34;;;;;;;;;;;15.60;80.70;;;;;;5043763;28;19928;-73
2023/04/23 00:06:04;;;;;;;;;;;15.60;81.00;;;;;;5044702;28;19932;-74
2023/04/23 00:08:31;;;;;;;;;;;15.60;81.00;;;;;;5040721;28;19978;-73
2023/04/23 00:10:58;;;;;;;;;;;15.50;81.20;;;;;;5045100;28;19928;-72
2023/04/23 00:13:26;;;;;;;;;;;15.60;81.60;;;;;;5042667;28;19967;-73
2023/04/23 00:15:53;;;;;;;;;;;15.50;81.80;;;;;;5043199;28;19924;-73
2023/04/23 00:18:19;;;;;;;;;;;15.50;82.10;;;;;;5039379;28;19979;-73
2023/04/23 00:20:46;;;;;;;;;;;15.40;82.30;;;;;;5041663;28;19925;-74
2023/04/23 00:23:13;;;;;;;;;;;15.50;82.70;;;;;;5040951;28;19947;-73
2023/04/23 00:25:39;;;;;;;;;;;15.40;83.00;;;;;;5041818;28;19929;-73
2023/04/23 00:28:06;;;;;;;;;;;15.40;83.30;;;;;;5039496;28;19928;-73
2023/04/23 00:30:33;;;;;;;;;;;15.40;83.60;;;;;;5040263;28;19940;-74
2023/04/23 00:33:00;;;;;;;;;;;15.30;83.80;;;;;;5044028;28;19935;-74
2023/04/23 00:35:27;;;;;;;;;;;15.30;83.90;;;;;;5039601;28;19932;-73
2023/04/23 00:37:53;;;;;;;;;;;15.30;84.20;;;;;;5041668;28;19936;-73
2023/04/23 00:40:20;;;;;;;;;;;15.30;84.40;;;;;;5042423;28;19951;-73
2023/04/23 00:42:47;;;;;;;;;;;15.30;84.70;;;;;;5041080;28;20545;-73
2023/04/23 00:45:14;;;;;;;;;;;15.20;84.90;;;;;;5035491;28;20011;-74
2023/04/23 00:47:42;;;;;;;;;;;15.30;85.00;;;;;;5039438;28;20313;-73
2023/04/23 00:50:10;;;;;;;;;;;15.20;85.10;;;;;;5036679;28;20346;-71
2023/04/23 00:52:38;;;;;;;;;;;15.20;85.30;;;;;;5043320;28;19933;-73
2023/04/23 00:55:04;;;;;;;;;;;15.20;85.50;;;;;;5038644;28;19932;-73
2023/04/23 00:57:31;;;;;;;;;;;15.20;85.70;;;;;;5039240;28;19935;-73
2023/04/23 00:59:58;;;;;;;;;;;15.10;86.60;;;;;;5042136;28;19935;-73
2023/04/23 01:02:26;;;;;;;;;;;15.10;86.30;;;;;;5039730;28;20008;-73
2023/04/23 01:04:54;;;;;;;;;;;15.10;86.40;;;;;;5042065;28;19928;-73
2023/04/23 01:07:21;;;;;;;;;;;15.10;86.60;;;;;;5037344;28;19928;-73
2023/04/23 01:09:49;;;;;;;;;;;15.10;86.70;;;;;;5038440;28;20844;-74
2023/04/23 01:12:16;;;;;;;;;;;15.00;86.90;;;;;;5042000;28;20310;-73
2023/04/23 01:14:43;;;;;;;;;;;15.00;87.20;;;;;;5040783;28;19935;-74
2023/04/23 01:17:11;;;;;;;;;;;15.00;87.40;;;;;;5039276;28;19929;-70
2023/04/23 01:19:37;;;;;;;;;;;15.00;87.60;;;;;;5043813;28;20363;-73
2023/04/23 01:22:08;;;;;;;;;;;14.90;87.70;;;;;;5043959;28;19937;-73
2023/04/23 01:24:35;;;;;;;;;;;14.90;87.90;;;;;;5041062;28;20584;-73
2023/04/23 01:27:02;;;;;;;;;;;14.90;88.00;;;;;;5042958;28;19933;-73
2023/04/23 01:29:29;;;;;;;;;;;14.90;88.20;;;;;;5040021;28;20695;-73
2023/04/23 01:31:57;;;;;;;;;;;14.80;88.30;;;;;;5039031;28;19928;-73
2023/04/23 01:34:23;;;;;;;;;;;14.90;88.50;;;;;;5038367;28;19929;-73
2023/04/23 01:36:50;;;;;;;;;;;14.80;88.50;;;;;;5036653;28;19939;-74
2023/04/23 01:39:18;;;;;;;;;;;14.80;88.70;;;;;;5040801;28;19929;-73
2023/04/23 01:41:45;;;;;;;;;;;14.80;88.60;;;;;;5038408;28;19941;-74
2023/04/23 01:44:12;;;;;;;;;;;14.80;88.70;;;;;;5035645;28;19929;-73
2023/04/23 01:46:39;;;;;;;;;;;14.70;88.80;;;;;;5040195;28;19940;-73
2023/04/23 01:49:06;;;;;;;;;;;14.70;88.90;;;;;;5043441;28;20316;-73
2023/04/23 01:51:32;;;;;;;;;;;14.70;89.00;;;;;;5042197;28;19933;-72
2023/04/23 01:53:59;;;;;;;;;;;14.70;89.10;;;;;;5037153;28;19963;-73
2023/04/23 01:56:29;;;;;;;;;;;14.70;89.20;;;;;;5040930;28;19935;-73
2023/04/23 01:58:55;;;;;;;;;;;14.70;89.40;;;;;;5040142;28;19936;-73
2023/04/23 02:01:22;;;;;;;;;;;14.60;89.50;;;;;;5038148;28;19933;-73
2023/04/23 02:03:49;;;;;;;;;;;14.60;89.70;;;;;;5046491;28;19933;-73
2023/04/23 02:06:16;;;;;;;;;;;14.60;89.80;;;;;;5039127;28;19929;-73
2023/04/23 02:08:43;;;;;;;;;;;14.60;90.00;;;;;;5026566;23;19929;-81
2023/04/23 02:11:09;;;;;;;;;;;14.60;90.00;;;;;;5016750;28;19936;-81
2023/04/23 02:13:37;;;;;;;;;;;14.60;90.10;;;;;;5015373;28;19936;-81
2023/04/23 02:16:04;;;;;;;;;;;14.50;90.10;;;;;;5013568;28;20290;-82
2023/04/23 02:18:31;;;;;;;;;;;14.50;90.20;;;;;;5016513;28;19980;-82
2023/04/23 02:20:58;;;;;;;;;;;14.50;90.20;;;;;;5018597;28;19933;-82
2023/04/23 02:23:25;;;;;;;;;;;14.50;90.30;;;;;;5017611;28;20511;-82
2023/04/23 02:25:52;;;;;;;;;;;14.50;90.30;;;;;;5015894;28;20014;-82
2023/04/23 02:28:18;;;;;;;;;;;14.50;90.40;;;;;;5014168;28;20325;-82
2023/04/23 02:30:46;;;;;;;;;;;14.50;90.40;;;;;;5018533;28;20451;-81
2023/04/23 02:33:13;;;;;;;;;;;14.40;90.40;;;;;;5018261;28;19929;-81
2023/04/23 02:35:39;;;;;;;;;;;14.40;90.40;;;;;;5012196;28;19937;-81
2023/04/23 02:38:06;;;;;;;;;;;14.40;90.50;;;;;;5018695;28;19929;-81
2023/04/23 02:40:33;;;;;;;;;;;14.40;90.50;;;;;;5019056;28;19929;-81
2023/04/23 02:43:00;;;;;;;;;;;14.40;90.60;;;;;;5017470;28;19929;-81
2023/04/23 02:45:26;;;;;;;;;;;14.40;90.60;;;;;;5015837;28;20365;-80
2023/04/23 02:47:54;;;;;;;;;;;14.30;90.70;;;;;;5016824;28;20586;-81
2023/04/23 02:50:21;;;;;;;;;;;14.30;90.80;;;;;;5015734;28;20385;-82
2023/04/23 02:52:48;;;;;;;;;;;14.30;90.90;;;;;;5018372;28;20039;-82
2023/04/23 02:55:15;;;;;;;;;;;14.30;90.90;;;;;;5010948;28;19998;-82
2023/04/23 02:57:42;;;;;;;;;;;14.30;91.00;;;;;;5018119;28;19936;-81
2023/04/23 03:00:11;;;;;;;;;;;14.30;91.00;;;;;;5019336;28;19929;-81
2023/04/23 03:02:37;;;;;;;;;;;14.20;91.00;;;;;;5020168;28;20457;-81
2023/04/23 03:05:06;;;;;;;;;;;14.20;91.00;;;;;;5018431;28;20750;-81
2023/04/23 03:07:32;;;;;;;;;;;14.20;91.10;;;;;;5014499;28;19933;-81
2023/04/23 03:09:59;;;;;;;;;;;14.20;91.10;;;;;;5015143;28;19935;-81
2023/04/23 03:12:25;;;;;;;;;;;14.20;91.20;;;;;;5013938;28;19929;-81
2023/04/23 03:14:52;;;;;;;;;;;14.20;91.20;;;;;;5020964;28;19929;-80
2023/04/23 03:17:19;;;;;;;;;;;14.20;91.20;;;;;;5021805;28;20477;-81
2023/04/23 03:19:45;;;;;;;;;;;14.20;91.30;;;;;;5020381;28;20483;-82
2023/04/23 03:22:13;;;;;;;;;;;14.10;91.30;;;;;;5020333;28;19933;-82
2023/04/23 03:24:40;;;;;;;;;;;14.20;91.30;;;;;;5021550;28;19939;-81
2023/04/23 03:27:06;;;;;;;;;;;14.20;91.30;;;;;;5019996;28;19929;-81
2023/04/23 03:29:33;;;;;;;;;;;14.10;91.30;;;;;;5016266;28;19929;-81
2023/04/23 03:31:59;;;;;;;;;;;14.10;91.30;;;;;;5019653;28;19933;-82
2023/04/23 03:34:26;;;;;;;;;;;14.10;91.40;;;;;;5019075;28;19932;-81
2023/04/23 03:36:52;;;;;;;;;;;14.10;91.40;;;;;;5018471;28;19925;-81
2023/04/23 03:39:20;;;;;;;;;;;14.10;91.40;;;;;;5020542;28;19933;-81
2023/04/23 03:41:47;;;;;;;;;;;14.10;91.40;;;;;;5023572;28;19936;-82
2023/04/23 03:44:13;;;;;;;;;;;14.10;91.40;;;;;;5020108;28;19929;-81
2023/04/23 03:46:40;;;;;;;;;;;14.00;91.40;;;;;;5022175;28;20059;-81
2023/04/23 03:49:06;;;;;;;;;;;14.10;91.40;;;;;;5020751;28;20511;-81
2023/04/23 03:51:33;;;;;;;;;;;14.10;91.30;;;;;;5021287;28;19929;-82
2023/04/23 03:53:59;;;;;;;;;;;14.00;91.30;;;;;;5020356;28;19929;-81
2023/04/23 03:56:27;;;;;;;;;;;14.00;91.30;;;;;;5022542;28;19940;-82
2023/04/23 03:58:54;;;;;;;;;;;14.00;91.30;;;;;;5020561;28;19936;-81
2023/04/23 04:01:21;;;;;;;;;;;14.00;91.40;;;;;;5022391;28;19936;-81
2023/04/23 04:03:47;;;;;;;;;;;14.00;91.40;;;;;;5022058;28;19928;-81
2023/04/23 04:06:14;;;;;;;;;;;14.00;91.40;;;;;;5020552;28;19940;-81
2023/04/23 04:08:40;;;;;;;;;;;14.00;91.50;;;;;;5018680;28;19933;-81
2023/04/23 04:11:07;;;;;;;;;;;13.90;91.50;;;;;;5020237;28;20518;-80
2023/04/23 04:13:35;;;;;;;;;;;13.90;91.50;;;;;;5020237;28;20404;-81
2023/04/23 04:16:01;;;;;;;;;;;13.90;91.60;;;;;;5021611;28;19933;-82
2023/04/23 04:18:28;;;;;;;;;;;13.90;91.60;;;;;;5028363;28;20325;-81
2023/04/23 04:20:55;;;;;;;;;;;13.90;91.70;;;;;;5021408;28;19940;-81
2023/04/23 04:23:21;;;;;;;;;;;13.90;91.70;;;;;;5018156;28;19929;-82
2023/04/23 04:25:49;;;;;;;;;;;13.90;91.80;;;;;;5020048;28;20718;-81
2023/04/23 04:28:16;;;;;;;;;;;13.80;91.80;;;;;;5018504;28;20543;-82
2023/04/23 04:30:44;;;;;;;;;;;13.90;91.80;;;;;;5019682;28;20018;-82
2023/04/23 04:33:11;;;;;;;;;;;13.80;91.80;;;;;;5019695;28;19975;-81
2023/04/23 04:35:38;;;;;;;;;;;13.80;91.80;;;;;;5016968;28;19936;-81
2023/04/23 04:38:04;;;;;;;;;;;13.80;91.90;;;;;;5018071;28;19929;-82
2023/04/23 04:40:32;;;;;;;;;;;13.70;91.90;;;;;;5017961;28;20288;-82
2023/04/23 04:42:59;;;;;;;;;;;13.80;91.90;;;;;;5018427;28;20362;-82
2023/04/23 04:45:25;;;;;;;;;;;13.80;91.90;;;;;;5014851;28;19971;-81
2023/04/23 04:47:53;;;;;;;;;;;13.80;91.90;;;;;;5018551;28;20344;-81
2023/04/23 04:50:20;;;;;;;;;;;13.70;91.90;;;;;;5016464;28;20503;-82
2023/04/23 04:52:46;;;;;;;;;;;13.70;91.90;;;;;;5018589;28;19929;-82
2023/04/23 04:55:13;;;;;;;;;;;13.70;91.90;;;;;;5010379;28;19933;-81
2023/04/23 04:57:39;;;;;;;;;;;13.70;91.90;;;;;;5012228;28;20589;-82
2023/04/23 05:00:18;;;;;;;;;;;13.70;91.90;;;;;;5026478;28;19932;-81
2023/04/23 05:02:45;;;;;;;;;;;13.70;91.90;;;;;;5012750;28;20688;-82
2023/04/23 05:05:13;;;;;;;;;;;13.70;92.00;;;;;;5014624;28;19996;-82
2023/04/23 05:07:39;;;;;;;;;;;13.60;91.90;;;;;;5019003;28;19958;-81
2023/04/23 05:10:07;;;;;;;;;;;13.70;92.00;;;;;;5023736;28;20464;-80
2023/04/23 05:12:33;;;;;;;;;;;13.70;92.00;;;;;;5015755;28;20389;-82
2023/04/23 05:15:00;;;;;;;;;;;13.60;91.90;;;;;;5019097;28;19929;-81
2023/04/23 05:17:26;;;;;;;;;;;13.60;91.90;;;;;;5016901;28;19929;-82
2023/04/23 05:19:53;;;;;;;;;;;13.60;91.90;;;;;;5019672;28;19933;-82
2023/04/23 05:22:21;;;;;;;;;;;13.60;91.90;;;;;;5015786;28;20052;-81
2023/04/23 05:24:48;;;;;;;;;;;13.60;91.90;;;;;;5019366;28;20692;-82
2023/04/23 05:27:14;;;;;;;;;;;13.60;92.00;;;;;;5019377;28;19929;-82
2023/04/23 05:29:41;;;;;;;;;;;13.60;92.00;;;;;;5016962;28;19940;-82
2023/04/23 05:32:07;;;;;;;;;;;13.60;92.00;;;;;;5019043;28;19929;-82
2023/04/23 05:34:34;;;;;;;;;;;13.60;92.00;;;;;;5017555;28;19933;-82
2023/04/23 05:37:00;;;;;;;;;;;13.60;92.00;;;;;;5018764;28;19943;-84
2023/04/23 05:39:28;;;;;;;;;;;13.60;92.00;;;;;;5014437;28;20810;-82
2023/04/23 05:41:55;;;;;;;;;;;13.60;92.10;;;;;;5003020;28;21828;-82
2023/04/23 05:44:21;;;;;;;;;;;13.60;92.20;;;;;;5014562;28;19976;-83
2023/04/23 05:46:48;;;;;;;;;;;13.50;92.20;;;;;;5013790;28;19987;-83
2023/04/23 05:49:15;;;;;;;;;;;13.50;92.20;;;;;;5017708;28;19940;-86
2023/04/23 05:51:41;;;;;;;;;;;13.50;92.30;;;;;;5018571;28;19929;-83
2023/04/23 05:54:08;;;;;;;;;;;13.50;92.40;;;;;;5011577;28;19929;-82
2023/04/23 05:56:36;;;;;;;;;;;13.50;92.50;;;;;;5017381;28;19935;-82
2023/04/23 05:59:02;;;;;;;;;;;13.50;92.60;;;;;;5018045;28;19952;-83
2023/04/23 06:01:29;;;;;;;;;;;13.50;92.60;;;;;;5016813;28;20399;-83
2023/04/23 06:03:55;;;;;;;;;;;13.50;92.60;;;;;;5017138;28;19925;-82
2023/04/23 06:06:22;;;;;;;;;;;13.50;92.60;;;;;;5013220;28;19933;-82
2023/04/23 06:08:49;;;;;;;;;;;13.50;92.60;;;;;;5014475;28;20420;-81
2023/04/23 06:11:16;;;;;;;;;;;13.50;92.60;;;;;;5016120;28;20448;-82
2023/04/23 06:13:44;;;;;;;;;;;13.50;92.60;;;;;;5017375;28;19986;-82
2023/04/23 06:16:11;;;;;;;;;;;13.50;92.70;;;;;;5016306;28;19947;-84
2023/04/23 06:18:38;;;;;;;;;;;13.50;92.80;;;;;;5009495;28;19935;-83
2023/04/23 06:21:04;;;;;;;;;;;13.50;92.80;;;;;;5017647;28;19929;-82
2023/04/23 06:23:31;;;;;;;;;;;13.50;92.80;;;;;;5011359;28;19968;-83
2023/04/23 06:25:58;;;;;;;;;;;13.40;92.80;;;;;;5014050;28;19928;-83
2023/04/23 06:28:24;;;;;;;;;;;13.40;92.70;;;;;;5010275;28;19936;-82
2023/04/23 06:30:52;;;;;;;;;;;13.40;92.70;;;;;;5015116;28;20532;-82
2023/04/23 06:33:19;;;;;;;;;;;13.40;92.70;;;;;;5013332;28;19929;-82
2023/04/23 06:35:45;;;;;;;;;;;13.50;92.80;;;;;;5018603;28;20444;-83
2023/04/23 06:38:12;;;;;;;;;;;13.40;92.70;;;;;;5015349;28;20457;-82
2023/04/23 06:40:39;;;;;;;;;;;13.40;92.70;;;;;;5017934;28;19929;-83
2023/04/23 06:43:06;;;;;;;;;;;13.40;92.70;;;;;;5013867;28;19940;-82
2023/04/23 06:45:34;;;;;;;;;;;13.40;92.80;;;;;;5014240;28;19970;-81
2023/04/23 06:48:01;;;;;;;;;;;13.40;92.80;;;;;;5015518;28;19962;-82
2023/04/23 06:50:28;;;;;;;;;;;13.40;92.80;;;;;;5022964;28;19936;-81
2023/04/23 06:52:55;;;;;;;;;;;13.40;92.90;;;;;;5021177;28;19936;-82
2023/04/23 06:55:24;;;;;;;;;;;13.50;93.00;;;;;;5013886;28;20030;-81
2023/04/23 06:57:51;;;;;;;;;;;13.40;93.40;;;;;;5015452;28;19936;-81
2023/04/23 07:00:18;;;;;;;;;;;13.50;93.00;;;;;;5017410;28;19940;-81
2023/04/23 07:02:45;;;;;;;;;;;13.50;93.10;;;;;;5021902;28;20265;-82
2023/04/23 07:05:13;;;;;;;;;;;13.50;93.20;;;;;;5016172;28;19933;-81
2023/04/23 07:07:41;;;;;;;;;;;13.50;93.20;;;;;;5018864;28;19955;-82
2023/04/23 07:10:09;;;;;;;;;;;13.50;93.10;;;;;;5019542;28;19933;-81
2023/04/23 07:12:35;;;;;;;;;;;13.50;93.20;;;;;;5016195;28;19936;-81
2023/04/23 07:15:02;;;;;;;;;;;13.50;93.10;;;;;;5022441;28;19929;-81
2023/04/23 07:17:29;;;;;;;;;;;13.50;93.10;;;;;;5021193;28;19929;-81
2023/04/23 07:19:56;;;;;;;;;;;13.50;93.10;;;;;;5017953;28;20000;-80
2023/04/23 07:22:25;;;;;;;;;;;13.50;93.20;;;;;;5011742;28;19983;-81
2023/04/23 07:24:52;;;;;;;;;;;13.50;93.30;;;;;;5018512;28;19940;-81
2023/04/23 07:27:19;;;;;;;;;;;13.50;93.20;;;;;;5015263;28;20278;-81
2023/04/23 07:29:45;;;;;;;;;;;13.60;93.20;;;;;;5014509;28;19936;-81
2023/04/23 07:32:12;;;;;;;;;;;13.60;93.20;;;;;;5018597;28;19940;-80
2023/04/23 07:34:38;;;;;;;;;;;13.60;93.20;;;;;;5023546;28;19940;-80
2023/04/23 07:37:05;;;;;;;;;;;13.60;93.10;;;;;;5015637;28;19933;-80
2023/04/23 07:39:33;;;;;;;;;;;13.60;93.00;;;;;;5015913;28;19937;-80
2023/04/23 07:42:00;;;;;;;;;;;13.60;92.90;;;;;;5018118;28;19936;-80
2023/04/23 07:44:27;;;;;;;;;;;13.70;92.90;;;;;;5018673;28;19929;-80
2023/04/23 07:46:54;;;;;;;;;;;13.70;92.80;;;;;;5020607;28;19937;-80
2023/04/23 07:49:20;;;;;;;;;;;13.70;92.80;;;;;;5022545;28;19936;-80
2023/04/23 07:51:47;;;;;;;;;;;13.70;92.70;;;;;;5027547;28;19936;-80
2023/04/23 07:54:14;;;;;;;;;;;13.70;92.60;;;;;;5018156;28;19933;-80
2023/04/23 07:56:42;;;;;;;;;;;13.70;92.60;;;;;;5018251;28;19929;-80
2023/04/23 07:59:09;;;;;;;;;;;13.70;92.50;;;;;;5015095;28;19979;-80
2023/04/23 08:01:36;;;;;;;;;;;13.80;92.40;;;;;;5014662;28;19940;-80
2023/04/23 08:04:02;;;;;;;;;;;13.80;92.40;;;;;;5020933;28;20657;-80
2023/04/23 08:06:30;;;;;;;;;;;13.80;92.30;;;;;;5019126;28;20390;-80
2023/04/23 08:08:56;;;;;;;;;;;13.80;92.10;;;;;;5022140;28;19941;-80
2023/04/23 08:11:23;;;;;;;;;;;13.90;92.10;;;;;;5020893;28;19929;-79
2023/04/23 08:13:51;;;;;;;;;;;13.90;92.00;;;;;;5020957;28;20051;-79
2023/04/23 08:16:17;;;;;;;;;;;13.90;91.90;;;;;;5016461;28;19929;-80
2023/04/23 08:18:44;;;;;;;;;;;13.90;91.90;;;;;;5016673;28;19928;-80
2023/04/23 08:21:11;;;;;;;;;;;14.00;91.80;;;;;;5021926;28;19936;-80
2023/04/23 08:23:38;;;;;;;;;;;14.00;91.80;;;;;;5020410;28;20653;-80
2023/04/23 08:26:04;;;;;;;;;;;14.00;91.60;;;;;;5018656;28;20211;-80
2023/04/23 08:28:31;;;;;;;;;;;14.00;91.60;;;;;;5015863;28;19940;-80
2023/04/23 08:30:59;;;;;;;;;;;14.10;91.50;;;;;;5021659;28;19933;-80
2023/04/23 08:33:25;;;;;;;;;;;14.10;91.40;;;;;;5021640;28;19940;-80
2023/04/23 08:35:52;;;;;;;;;;;14.10;91.30;;;;;;5019320;28;19940;-80
2023/04/23 08:38:19;;;;;;;;;;;14.10;91.30;;;;;;5019667;28;20372;-80
2023/04/23 08:40:46;;;;;;;;;;;14.20;91.10;;;;;;5021693;28;19940;-80
2023/04/23 08:43:16;;;;;;;;;;;14.20;91.30;;;;;;5021536;28;19940;-80
2023/04/23 08:45:45;;;;;;;;;;;14.20;90.80;;;;;;5016138;28;20696;-80
2023/04/23 08:48:13;;;;;;;;;;;14.30;90.50;;;;;;5021406;28;19928;-79
2023/04/23 08:50:42;;;;;;;;;;;14.30;90.40;;;;;;5018265;28;19971;-80
2023/04/23 08:53:09;;;;;;;;;;;14.40;90.40;;;;;;5021942;28;19937;-80
2023/04/23 08:55:36;;;;;;;;;;;14.40;90.30;;;;;;5017497;28;19945;-80
2023/04/23 08:58:05;;;;;;;;;;;14.50;90.10;;;;;;5020309;28;19940;-80
2023/04/23 09:00:32;;;;;;;;;;;14.50;90.00;;;;;;5012056;28;20342;-80
2023/04/23 09:02:58;;;;;;;;;;;14.50;89.70;;;;;;5020524;28;19929;-80
2023/04/23 09:05:27;;;;;;;;;;;14.60;89.50;;;;;;5018787;28;19940;-81
2023/04/23 09:07:54;;;;;;;;;;;14.70;89.30;;;;;;5015503;28;20024;-79
2023/04/23 09:10:20;;;;;;;;;;;14.70;88.80;;;;;;5018257;28;19991;-80
2023/04/23 09:12:47;;;;;;;;;;;14.80;88.20;;;;;;5024105;28;19929;-80
2023/04/23 09:15:13;;;;;;;;;;;14.90;88.00;;;;;;5020616;28;19936;-80
2023/04/23 09:17:41;;;;;;;;;;;14.90;87.70;;;;;;5019612;28;20604;-80
2023/04/23 09:20:08;;;;;;;;;;;15.00;86.40;;;;;;5020966;28;19936;-80
2023/04/23 09:22:40;;;;;;;;;;;15.10;86.20;;;;;;5017689;28;20068;-80
2023/04/23 09:25:08;;;;;;;;;;;15.20;86.10;;;;;;5021356;28;20100;-80
2023/04/23 09:27:35;;;;;;;;;;;15.20;85.90;;;;;;5019106;28;20841;-80
2023/04/23 09:30:03;;;;;;;;;;;15.30;84.40;;;;;;5021428;28;20063;-80
2023/04/23 09:32:33;;;;;;;;;;;15.40;85.40;;;;;;5020915;28;20001;-81
2023/04/23 09:35:02;;;;;;;;;;;15.40;84.10;;;;;;5021416;28;19929;-80
2023/04/23 09:37:28;;;;;;;;;;;15.50;83.40;;;;;;5017017;28;19971;-79
2023/04/23 09:39:58;;;;;;;;;;;15.50;83.40;;;;;;5024784;28;19937;-80
2023/04/23 09:42:27;;;;;;;;;;;15.60;83.20;;;;;;5021046;28;19935;-82
2023/04/23 09:44:56;;;;;;;;;;;15.70;82.70;;;;;;5031145;28;20369;-79
2023/04/23 09:47:22;;;;;;;;;;;15.70;82.60;;;;;;5025508;28;19933;-80
2023/04/23 09:49:49;;;;;;;;;;;15.70;81.80;;;;;;5018923;28;19940;-80
2023/04/23 09:52:16;;;;;;;;;;;15.80;80.70;;;;;;5018653;28;19929;-80
2023/04/23 09:54:45;;;;;;;;;;;15.90;80.50;;;;;;5016752;28;19982;-80
2023/04/23 09:57:13;;;;;;;;;;;15.90;80.30;;;;;;5017442;28;19929;-80
2023/04/23 09:59:39;;;;;;;;;;;16.00;79.50;;;;;;5018418;28;19929;-79
2023/04/23 10:02:07;;;;;;;;;;;16.00;80.10;;;;;;5017155;28;19929;-80
2023/04/23 10:04:34;;;;;;;;;;;16.00;80.40;;;;;;5018192;28;19936;-79
2023/04/23 10:07:01;;;;;;;;;;;16.10;79.80;;;;;;5015053;28;19937;-79
2023/04/23 10:09:28;;;;;;;;;;;16.10;80.10;;;;;;5016396;28;19933;-79
2023/04/23 10:11:55;;;;;;;;;;;16.20;79.70;;;;;;5020148;28;20466;-80
2023/04/23 10:14:24;;;;;;;;;;;16.20;79.50;;;;;;5021029;28;19937;-80
2023/04/23 10:16:51;;;;;;;;;;;16.30;78.30;;;;;;5011957;28;19936;-80
2023/04/23 10:19:19;;;;;;;;;;;16.30;78.40;;;;;;5019516;28;19952;-80
2023/04/23 10:21:46;;;;;;;;;;;16.40;78.60;;;;;;5015912;28;19936;-80
2023/04/23 10:24:16;;;;;;;;;;;16.40;78.60;;;;;;5017004;28;19936;-80
2023/04/23 10:26:43;;;;;;;;;;;16.40;78.50;;;;;;5011681;28;20452;-80
2023/04/23 10:29:15;;;;;;;;;;;16.50;77.90;;;;;;5016495;28;19932;-80
2023/04/23 10:31:43;;;;;;;;;;;16.50;77.30;;;;;;5018319;28;19929;-80
2023/04/23 10:34:10;;;;;;;;;;;16.50;77.70;;;;;;5016290;28;20302;-80
2023/04/23 10:36:37;;;;;;;;;;;16.60;77.70;;;;;;5012059;28;19933;-80
2023/04/23 10:39:07;;;;;;;;;;;16.60;77.80;;;;;;5014841;28;19936;-79
2023/04/23 10:41:35;;;;;;;;;;;16.70;76.40;;;;;;5010711;28;19929;-80
2023/04/23 10:44:02;;;;;;;;;;;16.70;76.40;;;;;;5017739;28;19964;-84
2023/04/23 10:46:29;;;;;;;;;;;16.80;75.30;;;;;;5006693;28;20344;-82
2023/04/23 10:49:06;;;;;;;;;;;16.80;75.20;;;;;;5015806;28;19997;-84
2023/04/23 10:51:33;;;;;;;;;;;16.80;75.50;;;;;;5012378;28;20341;-83
2023/04/23 10:54:00;;;;;;;;;;;16.80;75.80;;;;;;5011153;28;20023;-80
2023/04/23 10:56:27;;;;;;;;;;;16.90;76.00;;;;;;5019214;28;20586;-81
2023/04/23 10:58:54;;;;;;;;;;;16.80;75.90;;;;;;5013035;28;19929;-82
2023/04/23 11:01:24;;;;;;;;;;;16.90;76.00;;;;;;5018716;28;20480;-80
2023/04/23 11:03:51;;;;;;;;;;;17.00;75.70;;;;;;5017243;28;19960;-81
2023/04/23 11:06:42;;;;;;;;;;;17.00;75.40;;;;;;5013228;28;19929;-80
2023/04/23 11:09:23;;;;;;;;;;;17.10;74.90;;;;;;5014753;28;19929;-80
2023/04/23 11:11:50;;;;;;;;;;;17.10;74.80;;;;;;5011851;28;19933;-80
2023/04/23 11:14:16;;;;;;;;;;;17.20;74.80;;;;;;5001995;28;19933;-80
2023/04/23 11:16:43;;;;;;;;;;;17.20;74.80;;;;;;5015252;28;19968;-81
2023/04/23 11:19:11;;;;;;;;;;;17.20;74.90;;;;;;5014567;28;19929;-80
2023/04/23 11:21:58;;;;;;;;;;;17.20;74.60;;;;;;5015519;28;19929;-80
2023/04/23 11:24:25;;;;;;;;;;;17.20;73.90;;;;;;5012218;28;20678;-80
2023/04/23 11:26:52;;;;;;;;;;;17.30;73.50;;;;;;5013922;28;19936;-80
2023/04/23 11:29:20;;;;;;;;;;;17.30;74.80;;;;;;5018908;28;20460;-80
2023/04/23 11:31:47;;;;;;;;;;;17.30;74.00;;;;;;5015662;28;19929;-80
2023/04/23 11:34:14;;;;;;;;;;;17.30;74.10;;;;;;5019016;28;20707;-80
2023/04/23 11:36:41;;;;;;;;;;;17.40;74.10;;;;;;5026294;28;19929;-80
2023/04/23 11:39:09;;;;;;;;;;;17.40;73.40;;;;;;5021724;28;19956;-80
2023/04/23 11:41:36;;;;;;;;;;;17.40;73.50;;;;;;5024671;28;19933;-81
2023/04/23 11:44:03;;;;;;;;;;;17.50;73.80;;;;;;5020333;28;20759;-81
2023/04/23 11:46:30;;;;;;;;;;;17.50;73.40;;;;;;5016632;28;20023;-81
2023/04/23 11:48:57;;;;;;;;;;;17.60;72.40;;;;;;5017913;28;19939;-82
2023/04/23 11:51:25;;;;;;;;;;;17.60;72.30;;;;;;5022530;28;19999;-81
2023/04/23 11:53:51;;;;;;;;;;;17.70;72.70;;;;;;5017689;28;19937;-80
2023/04/23 11:56:20;;;;;;;;;;;17.70;72.60;;;;;;5009766;28;19941;-80
2023/04/23 11:58:46;;;;;;;;;;;17.80;72.60;;;;;;5014971;28;20514;-81
2023/04/23 12:01:13;;;;;;;;;;;17.80;72.50;;;;;;5013498;28;19940;-81
2023/04/23 12:03:39;;;;;;;;;;;17.90;72.00;;;;;;5016341;28;19929;-82
2023/04/23 12:06:06;;;;;;;;;;;18.00;71.90;;;;;;5009917;28;19940;-81
2023/04/23 12:08:34;;;;;;;;;;;18.00;71.80;;;;;;5018596;28;20588;-80
2023/04/23 12:11:02;;;;;;;;;;;18.10;72.00;;;;;;5018996;28;20042;-81
2023/04/23 12:13:30;;;;;;;;;;;18.10;71.80;;;;;;5011644;28;19933;-82
2023/04/23 12:15:58;;;;;;;;;;;18.10;71.70;;;;;;5006309;28;20023;-81
2023/04/23 12:18:27;;;;;;;;;;;18.20;71.40;;;;;;5013519;28;20503;-81
2023/04/23 12:20:53;;;;;;;;;;;18.20;71.30;;;;;;5013187;28;19987;-81
2023/04/23 12:23:25;;;;;;;;;;;18.20;71.50;;;;;;5011271;28;19928;-79
2023/04/23 12:25:53;;;;;;;;;;;18.20;71.10;;;;;;5014794;28;19933;-80
2023/04/23 12:28:22;;;;;;;;;;;18.30;71.00;;;;;;5015781;28;20028;-81
2023/04/23 12:30:51;;;;;;;;;;;18.30;71.00;;;;;;5015877;28;19929;-82
2023/04/23 12:33:17;;;;;;;;;;;18.30;70.70;;;;;;5016355;28;19929;-80
2023/04/23 12:35:49;;;;;;;;;;;18.40;70.60;;;;;;5017381;28;19936;-81
2023/04/23 12:38:23;;;;;;;;;;;18.50;70.60;;;;;;5012031;28;19940;-81
2023/04/23 12:40:49;;;;;;;;;;;18.60;70.70;;;;;;5009348;28;20043;-80
2023/04/23 12:43:16;;;;;;;;;;;18.70;70.50;;;;;;5016142;28;19940;-81
2023/04/23 12:45:44;;;;;;;;;;;18.70;69.60;;;;;;5017242;28;20677;-80
2023/04/23 12:48:12;;;;;;;;;;;18.80;69.00;;;;;;5009169;28;21520;-81
2023/04/23 12:50:38;;;;;;;;;;;18.90;69.00;;;;;;5015929;28;19975;-80
2023/04/23 12:53:05;;;;;;;;;;;18.90;68.30;;;;;;5017843;28;19936;-80
2023/04/23 12:55:32;;;;;;;;;;;19.00;67.50;;;;;;5011893;28;20004;-80
2023/04/23 12:57:58;;;;;;;;;;;19.00;67.90;;;;;;5013005;28;20641;-81
2023/04/23 13:00:25;;;;;;;;;;;19.10;67.70;;;;;;5013137;28;19933;-81
2023/04/23 13:02:52;;;;;;;;;;;19.20;68.10;;;;;;5016392;28;19980;-81
2023/04/23 13:05:20;;;;;;;;;;;19.20;68.10;;;;;;5014751;28;19929;-82
2023/04/23 13:07:46;;;;;;;;;;;19.20;68.40;;;;;;5010710;28;19937;-80
2023/04/23 13:10:13;;;;;;;;;;;19.20;68.00;;;;;;5015607;28;20341;-81
2023/04/23 13:12:40;;;;;;;;;;;19.20;68.50;;;;;;5013366;28;19929;-79
2023/04/23 13:15:08;;;;;;;;;;;19.20;68.90;;;;;;5012208;28;19939;-81
2023/04/23 13:17:34;;;;;;;;;;;19.20;68.80;;;;;;5015306;28;19929;-80
2023/04/23 13:20:01;;;;;;;;;;;19.20;68.00;;;;;;5012794;28;19929;-80
2023/04/23 13:22:29;;;;;;;;;;;19.20;68.30;;;;;;5014002;28;19929;-80
2023/04/23 13:24:56;;;;;;;;;;;19.20;68.30;;;;;;5017661;28;19929;-80
2023/04/23 13:27:24;;;;;;;;;;;19.20;68.50;;;;;;5017446;28;19969;-80
2023/04/23 13:29:50;;;;;;;;;;;19.10;68.90;;;;;;5015606;28;19932;-80
2023/04/23 13:32:17;;;;;;;;;;;19.10;69.10;;;;;;5015475;28;19933;-80
2023/04/23 13:34:44;;;;;;;;;;;19.10;68.60;;;;;;5019319;28;19929;-81
2023/04/23 13:37:10;;;;;;;;;;;19.10;68.60;;;;;;5017752;28;19929;-81
2023/04/23 13:39:38;;;;;;;;;;;19.10;68.70;;;;;;5021821;28;20300;-80
2023/04/23 13:42:05;;;;;;;;;;;19.20;68.60;;;;;;5015527;28;19928;-80
2023/04/23 13:44:33;;;;;;;;;;;19.20;68.10;;;;;;5012414;28;21302;-80
2023/04/23 13:47:00;;;;;;;;;;;19.30;68.10;;;;;;5015394;28;20348;-80
2023/04/23 13:49:27;;;;;;;;;;;19.30;68.00;;;;;;5017087;28;19929;-80
2023/04/23 13:51:57;;;;;;;;;;;19.30;67.60;;;;;;5019308;28;19940;-79
2023/04/23 13:54:26;;;;;;;;;;;19.40;67.50;;;;;;5014962;28;19929;-80
2023/04/23 13:56:54;;;;;;;;;;;19.50;67.20;;;;;;5017447;28;19929;-79
2023/04/23 13:59:21;;;;;;;;;;;19.50;67.10;;;;;;5015404;28;20023;-80
2023/04/23 14:01:48;;;;;;;;;;;19.50;66.80;;;;;;5006540;28;19932;-79
2023/04/23 14:04:15;;;;;;;;;;;19.60;66.50;;;;;;5011685;28;19941;-79
2023/04/23 14:06:41;;;;;;;;;;;19.70;66.50;;;;;;5009878;28;19936;-79
2023/04/23 14:09:08;;;;;;;;;;;19.70;66.50;;;;;;5012118;28;19933;-79
2023/04/23 14:11:36;;;;;;;;;;;19.80;66.30;;;;;;5014810;28;19936;-79
2023/04/23 14:14:04;;;;;;;;;;;19.80;66.30;;;;;;5012869;28;20045;-80
2023/04/23 14:16:31;;;;;;;;;;;19.80;66.30;;;;;;5012167;28;19940;-79